Time;durP1;ratioP1;P1;durP2;ratioP2;P2;SDS_P1;SDS_P2;PMS_P1;PMS_P2;Temp;Humidity;BMP_temperature;BMP_pressure;BME280_temperature;BME280_humidity;BME280_pressure;Samples;Min_cycle;Max_cycle;Signal;HPM_P1;HPM_P2
2023/05/19 00:01:47;;;;;;;;;;;;;;;17.64;65.27;100477.03;4353651;32;34212;-87
2023/05/19 00:04:17;;;;;;;;;;;;;;;17.59;65.38;100474.66;4341279;32;33022;-88
2023/05/19 00:06:45;;;;;;;;;;;;;;;17.56;65.09;100480.16;4337677;32;32878;-87
2023/05/19 00:09:12;;;;;;;;;;;;;;;17.57;64.94;100471.22;4353027;32;34560;-87
2023/05/19 00:11:41;;;;;;;;;;;;;;;17.24;65.09;100478.66;4342210;32;33003;-88
2023/05/19 00:14:08;;;;;;;;;;;;;;;17.38;64.65;100467.97;4365652;32;34155;-86
2023/05/19 00:16:41;;;;;;;;;;;;;;;17.32;64.94;100477.19;4367765;32;34229;-86
2023/05/19 00:19:08;;;;;;;;;;;;;;;17.23;65.09;100469.75;4349240;32;34189;-86
2023/05/19 00:21:37;;;;;;;;;;;;;;;17.11;65.28;100471.37;4348092;32;32984;-85
2023/05/19 00:24:06;;;;;;;;;;;;;;;17.12;64.95;100475.75;4347667;32;33956;-86
2023/05/19 00:26:34;;;;;;;;;;;;;;;17.07;64.71;100474.31;4347380;32;32981;-85
2023/05/19 00:29:03;;;;;;;;;;;;;;;17.01;64.29;100480.87;4340638;32;33959;-86
2023/05/19 00:31:32;;;;;;;;;;;;;;;16.99;63.87;100469.41;4368668;32;33372;-86
2023/05/19 00:34:07;;;;;;;;;;;;;;;17.02;63.45;100469.25;4335355;32;32874;-86
2023/05/19 00:36:35;;;;;;;;;;;;;;;16.90;63.55;100472.62;4361538;32;34034;-87
2023/05/19 00:39:03;;;;;;;;;;;;;;;16.95;63.20;100462.56;4348926;32;33463;-88
2023/05/19 00:41:30;;;;;;;;;;;;;;;16.98;62.96;100467.72;4345970;32;33169;-87
2023/05/19 00:43:58;;;;;;;;;;;;;;;16.80;63.59;100468.78;4349114;32;33475;-88
2023/05/19 00:46:26;;;;;;;;;;;;;;;16.92;63.29;100465.41;4351547;32;33304;-88
2023/05/19 00:48:53;;;;;;;;;;;;;;;16.91;63.45;100466.38;4365607;32;32720;-87
2023/05/19 00:51:25;;;;;;;;;;;;;;;17.00;63.01;100471.16;4345306;32;34387;-87
2023/05/19 00:53:54;;;;;;;;;;;;;;;16.95;63.20;100467.03;4362480;32;32817;-88
2023/05/19 00:56:21;;;;;;;;;;;;;;;16.83;63.52;100469.47;4353471;32;33597;-87
2023/05/19 00:58:49;;;;;;;;;;;;;;;16.84;63.28;100465.00;4333278;32;34527;-86
2023/05/19 01:01:20;;;;;;;;;;;;;;;16.82;63.19;100469.56;4369797;32;34492;-86
2023/05/19 01:03:50;;;;;;;;;;;;;;;16.83;63.26;100464.16;4348105;32;32214;-87
2023/05/19 01:06:21;;;;;;;;;;;;;;;16.86;63.09;100463.13;4351420;32;32748;-87
2023/05/19 01:08:50;;;;;;;;;;;;;;;16.80;62.98;100458.97;4348781;32;34197;-86
2023/05/19 01:11:18;;;;;;;;;;;;;;;16.75;62.77;100454.88;4349536;32;32972;-87
2023/05/19 01:13:45;;;;;;;;;;;;;;;16.75;62.96;100462.88;4348879;32;33115;-86
2023/05/19 01:16:17;;;;;;;;;;;;;;;16.65;63.23;100465.19;4354375;32;34886;-86
2023/05/19 01:18:56;;;;;;;;;;;;;;;16.53;63.62;100465.91;4346979;33;34092;-87
2023/05/19 01:21:36;;;;;;;;;;;;;;;16.69;63.12;100460.53;4358714;32;32942;-87
2023/05/19 01:24:26;;;;;;;;;;;;;;;16.61;63.25;100456.50;4362457;32;33350;-87
2023/05/19 01:27:03;;;;;;;;;;;;;;;16.51;63.63;100465.97;4349715;32;33922;-85
2023/05/19 01:32:28;;;;;;;;;;;;;;;16.58;63.29;100475.34;4378587;32;33595;-87
2023/05/19 01:34:55;;;;;;;;;;;;;;;16.50;63.61;100472.25;4348398;32;32400;-87
2023/05/19 01:37:23;;;;;;;;;;;;;;;16.54;63.58;100481.81;4336323;32;33981;-87
2023/05/19 01:39:51;;;;;;;;;;;;;;;16.58;63.44;100475.34;4350904;32;33884;-86
2023/05/19 01:42:18;;;;;;;;;;;;;;;16.46;64.14;100470.72;4344792;33;33749;-86
2023/05/19 01:44:56;;;;;;;;;;;;;;;16.69;62.75;100466.72;4350159;32;32253;-86
2023/05/19 01:47:25;;;;;;;;;;;;;;;16.76;62.30;100467.25;4353143;32;33020;-86
2023/05/19 01:49:53;;;;;;;;;;;;;;;16.57;62.30;100468.31;4350556;32;32883;-86
2023/05/19 01:52:21;;;;;;;;;;;;;;;16.38;63.36;100465.84;4365642;32;34003;-87
2023/05/19 01:54:49;;;;;;;;;;;;;;;16.39;63.56;100464.91;4351874;32;33342;-87
2023/05/19 01:57:20;;;;;;;;;;;;;;;16.35;63.90;100465.16;4350629;32;34176;-86
2023/05/19 01:59:55;;;;;;;;;;;;;;;16.33;63.93;100467.91;4349540;32;33026;-87
2023/05/19 02:02:35;;;;;;;;;;;;;;;16.43;63.90;100470.06;4376904;32;34160;-88
2023/05/19 02:05:13;;;;;;;;;;;;;;;16.50;63.55;100466.09;4349483;32;32620;-88
2023/05/19 02:07:42;;;;;;;;;;;;;;;16.45;63.74;100469.00;4349028;32;33590;-88
2023/05/19 02:10:11;;;;;;;;;;;;;;;16.38;63.93;100473.00;4345702;32;35461;-87
2023/05/19 02:12:40;;;;;;;;;;;;;;;16.38;63.84;100467.66;4348469;32;32653;-87
2023/05/19 02:15:15;;;;;;;;;;;;;;;16.51;63.04;100470.47;4354061;32;32597;-88
2023/05/19 02:17:47;;;;;;;;;;;;;;;16.42;63.18;100463.84;4350078;32;33018;-88
2023/05/19 02:20:16;;;;;;;;;;;;;;;16.36;63.57;100469.53;4344746;33;34284;-89
2023/05/19 02:22:44;;;;;;;;;;;;;;;16.22;64.31;100467.66;4343940;32;33071;-88
2023/05/19 02:25:12;;;;;;;;;;;;;;;16.19;64.52;100477.63;4353626;32;33635;-89
2023/05/19 02:27:41;;;;;;;;;;;;;;;16.23;64.23;100468.50;4339482;32;34123;-88
2023/05/19 02:30:10;;;;;;;;;;;;;;;16.24;64.32;100464.91;4337976;32;34336;-88
2023/05/19 02:32:38;;;;;;;;;;;;;;;16.17;64.44;100463.53;4347592;32;34453;-88
2023/05/19 02:35:06;;;;;;;;;;;;;;;16.22;64.57;100462.31;4337920;32;32642;-88
2023/05/19 02:37:35;;;;;;;;;;;;;;;16.45;63.20;100463.69;4352716;32;34676;-89
2023/05/19 02:40:03;;;;;;;;;;;;;;;16.32;63.48;100458.19;4350854;32;34684;-89
2023/05/19 02:42:30;;;;;;;;;;;;;;;16.15;64.32;100465.44;4336112;32;32937;-89
2023/05/19 02:45:05;;;;;;;;;;;;;;;16.07;65.01;100464.03;4339377;32;32425;-89
2023/05/19 02:47:50;;;;;;;;;;;;;;;15.98;65.30;100464.56;4358185;32;32847;-88
2023/05/19 02:50:18;;;;;;;;;;;;;;;15.87;65.77;100461.63;4344746;32;33003;-87
2023/05/19 02:52:46;;;;;;;;;;;;;;;15.99;65.71;100460.94;4363476;32;33628;-88
2023/05/19 02:55:15;;;;;;;;;;;;;;;16.06;65.42;100459.66;4368240;32;31856;-88
2023/05/19 02:57:44;;;;;;;;;;;;;;;16.08;65.13;100465.75;4365502;32;34918;-88
2023/05/19 03:00:12;;;;;;;;;;;;;;;16.14;65.03;100459.22;4353177;32;33917;-88
2023/05/19 03:02:42;;;;;;;;;;;;;;;16.04;65.23;100463.34;4353780;32;33856;-88
2023/05/19 03:08:59;;;;;;;;;;;;;;;16.02;65.04;100467.91;4377938;32;34023;-88
2023/05/19 03:11:29;;;;;;;;;;;;;;;16.06;65.10;100480.13;4364545;32;32710;-87
2023/05/19 03:13:57;;;;;;;;;;;;;;;16.02;65.23;100473.25;4376457;32;32245;-90
2023/05/19 03:16:49;;;;;;;;;;;;;;;16.11;64.90;100483.38;4377735;32;32105;-88
2023/05/19 03:19:17;;;;;;;;;;;;;;;16.04;64.86;100482.00;4359085;32;33883;-88
2023/05/19 03:21:46;;;;;;;;;;;;;;;16.04;65.04;100474.84;4359179;32;32829;-87
2023/05/19 03:24:13;;;;;;;;;;;;;;;15.95;65.41;100483.38;4342511;32;33466;-87
2023/05/19 03:26:41;;;;;;;;;;;;;;;15.93;65.57;100479.94;4357641;32;33312;-87
2023/05/19 03:29:10;;;;;;;;;;;;;;;15.92;65.58;100475.56;4359629;32;33463;-87
2023/05/19 03:31:38;;;;;;;;;;;;;;;16.05;65.05;100475.75;4344843;32;32872;-87
2023/05/19 03:34:06;;;;;;;;;;;;;;;15.94;65.25;100478.97;4351782;32;34033;-89
2023/05/19 03:36:49;;;;;;;;;;;;;;;15.91;65.30;100481.84;4342660;32;31639;-90
2023/05/19 03:39:21;;;;;;;;;;;;;;;15.92;65.51;100477.37;4359552;32;33751;-90
2023/05/19 03:42:26;;;;;;;;;;;;;;;15.91;65.43;100479.16;4341252;32;32995;-90
2023/05/19 03:45:13;;;;;;;;;;;;;;;15.92;65.50;100477.37;4371769;32;32652;-87
2023/05/19 03:47:42;;;;;;;;;;;;;;;15.86;65.65;100471.44;4360810;32;32569;-87
2023/05/19 03:50:16;;;;;;;;;;;;;;;15.97;65.60;100469.97;4369095;32;34105;-87
2023/05/19 03:52:48;;;;;;;;;;;;;;;16.00;65.54;100469.78;4369952;32;34323;-87
2023/05/19 03:55:19;;;;;;;;;;;;;;;16.03;65.59;100470.47;4364501;32;32575;-87
2023/05/19 03:57:48;;;;;;;;;;;;;;;16.03;65.56;100467.81;4360323;32;32229;-87
2023/05/19 04:00:17;;;;;;;;;;;;;;;16.05;65.58;100470.41;4380815;32;33778;-88
2023/05/19 04:02:45;;;;;;;;;;;;;;;16.03;65.75;100467.81;4360112;32;33382;-87
2023/05/19 04:05:19;;;;;;;;;;;;;;;16.07;65.72;100480.03;4381014;32;34166;-88
2023/05/19 04:07:47;;;;;;;;;;;;;;;16.17;65.39;100480.38;4369997;32;31925;-87
2023/05/19 04:10:18;;;;;;;;;;;;;;;16.17;65.50;100490.19;4359665;32;32790;-88
2023/05/19 04:12:46;;;;;;;;;;;;;;;16.15;65.67;100486.75;4359846;32;32877;-88
2023/05/19 04:15:16;;;;;;;;;;;;;;;16.20;65.26;100482.03;4386838;32;33094;-88
2023/05/19 04:17:44;;;;;;;;;;;;;;;16.20;65.34;100487.34;4360871;32;32796;-88
2023/05/19 04:20:16;;;;;;;;;;;;;;;16.24;65.41;100488.91;4358960;32;33376;-88
2023/05/19 04:22:46;;;;;;;;;;;;;;;16.23;65.55;100489.81;4364775;32;34601;-88
2023/05/19 04:25:14;;;;;;;;;;;;;;;16.28;65.70;100491.28;4377531;32;32951;-87
2023/05/19 04:27:41;;;;;;;;;;;;;;;16.29;65.69;100492.16;4380034;32;32737;-87
2023/05/19 04:30:10;;;;;;;;;;;;;;;16.36;65.58;100501.50;4356351;32;33478;-87
2023/05/19 04:32:40;;;;;;;;;;;;;;;16.41;65.73;100499.44;4369107;32;34007;-87
2023/05/19 04:35:09;;;;;;;;;;;;;;;16.52;65.50;100505.03;4394378;32;34240;-87
2023/05/19 04:37:37;;;;;;;;;;;;;;;16.61;65.50;100506.31;4380374;32;33533;-87
2023/05/19 04:40:09;;;;;;;;;;;;;;;16.59;65.78;100508.22;4368962;32;35313;-87
2023/05/19 04:42:41;;;;;;;;;;;;;;;16.53;65.74;100509.44;4372387;32;34299;-87
2023/05/19 04:45:12;;;;;;;;;;;;;;;16.59;65.55;100509.06;4365927;32;33849;-88
2023/05/19 04:47:43;;;;;;;;;;;;;;;16.74;65.17;100509.16;4366802;32;32412;-88
2023/05/19 04:50:11;;;;;;;;;;;;;;;16.87;64.83;100511.03;4355417;32;33867;-88
2023/05/19 04:52:46;;;;;;;;;;;;;;;17.05;64.48;100510.91;4370943;32;34112;-88
2023/05/19 04:55:19;;;;;;;;;;;;;;;17.03;64.05;100512.78;4358932;32;33477;-88
2023/05/19 04:57:50;;;;;;;;;;;;;;;17.15;63.83;100512.94;4358982;32;32294;-88
2023/05/19 05:00:20;;;;;;;;;;;;;;;17.36;63.30;100515.25;4363930;32;32874;-89
2023/05/19 05:02:56;;;;;;;;;;;;;;;17.17;63.78;100511.97;4390051;32;33125;-88
2023/05/19 05:05:25;;;;;;;;;;;;;;;17.14;64.45;100511.22;4380456;32;32936;-88
2023/05/19 05:07:59;;;;;;;;;;;;;;;17.61;62.81;100503.91;4368683;32;32640;-86
2023/05/19 05:10:28;;;;;;;;;;;;;;;17.77;62.23;100509.22;4378318;32;34508;-86
2023/05/19 05:12:59;;;;;;;;;;;;;;;17.87;61.80;100513.03;4378087;32;33944;-87
2023/05/19 05:15:34;;;;;;;;;;;;;;;17.76;61.91;100512.84;4381784;32;33180;-87
2023/05/19 05:18:03;;;;;;;;;;;;;;;17.41;63.22;100523.84;4382753;32;34122;-92
2023/05/19 05:23:51;;;;;;;;;;;;;;;17.56;63.04;100522.91;4371929;32;34795;-93
2023/05/19 05:26:44;;;;;;;;;;;;;;;17.48;63.53;100525.19;4351749;32;33281;-94
2023/05/19 05:29:36;;;;;;;;;;;;;;;17.63;62.74;100524.25;4346332;32;33292;-92
2023/05/19 05:32:29;;;;;;;;;;;;;;;18.10;61.73;100517.78;4355818;32;32758;-94
2023/05/19 05:35:24;;;;;;;;;;;;;;;18.01;62.21;100517.50;4358855;32;34745;-92
2023/05/19 05:38:06;;;;;;;;;;;;;;;18.17;60.93;100519.09;4363042;32;32719;-94
2023/05/19 05:41:02;;;;;;;;;;;;;;;18.29;60.08;100527.31;4359126;32;32151;-95
2023/05/19 05:43:44;;;;;;;;;;;;;;;18.15;60.64;100526.38;4363969;32;33977;-95
2023/05/19 05:46:37;;;;;;;;;;;;;;;18.30;59.58;100529.03;4366435;32;32671;-95
2023/05/19 05:49:30;;;;;;;;;;;;;;;18.27;59.35;100531.87;4350601;32;32839;-94
2023/05/19 05:52:14;;;;;;;;;;;;;;;18.00;60.92;100526.50;4338826;32;32708;-95
2023/05/19 05:54:58;;;;;;;;;;;;;;;17.73;62.11;100535.25;4351469;32;33360;-93
2023/05/19 05:57:57;;;;;;;;;;;;;;;17.73;62.09;100532.59;4341679;32;33132;-94
2023/05/19 06:00:56;;;;;;;;;;;;;;;17.95;61.45;100532.13;4355264;32;34680;-93
2023/05/19 06:03:48;;;;;;;;;;;;;;;18.26;60.74;100532.84;4357199;32;32535;-89
2023/05/19 06:06:42;;;;;;;;;;;;;;;18.47;60.19;100530.59;4358739;32;34621;-94
2023/05/19 06:09:40;;;;;;;;;;;;;;;18.30;61.12;100529.03;4329764;33;32978;-94
2023/05/19 06:12:32;;;;;;;;;;;;;;;18.24;60.61;100535.63;4345664;33;32812;-93
2023/05/19 06:15:27;;;;;;;;;;;;;;;18.47;60.25;100542.16;4366233;32;32238;-92
2023/05/19 06:18:18;;;;;;;;;;;;;;;18.93;59.27;100539.16;4349039;32;34054;-94
2023/05/19 06:21:00;;;;;;;;;;;;;;;18.57;60.53;100539.75;4355656;32;32949;-92
2023/05/19 06:23:53;;;;;;;;;;;;;;;18.88;59.55;100542.16;4351939;32;33774;-93
2023/05/19 06:26:40;;;;;;;;;;;;;;;18.91;58.23;100546.44;4373104;32;33858;-92
2023/05/19 06:29:29;;;;;;;;;;;;;;;18.89;58.97;100541.19;4323901;33;35646;-93
2023/05/19 06:32:15;;;;;;;;;;;;;;;19.31;58.06;100543.75;4348636;33;33262;-93
2023/05/19 06:39:18;;;;;;;;;;;;;;;19.81;57.64;100537.63;4383399;32;34207;-94
2023/05/19 06:42:13;;;;;;;;;;;;;;;20.14;55.23;100539.72;4359915;32;32824;-91
2023/05/19 06:44:55;;;;;;;;;;;;;;;19.59;57.82;100548.06;4363068;32;33472;-91
2023/05/19 06:47:41;;;;;;;;;;;;;;;19.99;55.81;100548.87;4339788;32;34280;-91
2023/05/19 06:50:27;;;;;;;;;;;;;;;20.15;55.33;100557.50;4393580;32;34068;-92
2023/05/19 06:56:42;;;;;;;;;;;;;;;20.30;54.11;100566.28;4349585;33;33823;-92
2023/05/19 06:59:36;;;;;;;;;;;;;;;20.32;52.33;100563.47;4328356;33;32710;-92
2023/05/19 07:02:19;;;;;;;;;;;;;;;20.13;53.33;100562.13;4363337;32;32301;-95
2023/05/19 07:05:17;;;;;;;;;;;;;;;19.97;53.68;100556.13;4364543;32;32957;-94
2023/05/19 07:08:11;;;;;;;;;;;;;;;19.91;55.42;100569.97;4353947;32;34776;-93
2023/05/19 07:10:54;;;;;;;;;;;;;;;19.64;56.83;100567.41;4350155;32;32988;-93
2023/05/19 07:13:47;;;;;;;;;;;;;;;20.02;55.46;100567.38;4353318;32;32778;-93
2023/05/19 07:16:29;;;;;;;;;;;;;;;20.18;54.62;100559.13;4326936;33;33913;-93
2023/05/19 07:19:12;;;;;;;;;;;;;;;20.41;52.89;100560.13;4324354;33;34069;-93
2023/05/19 07:22:05;;;;;;;;;;;;;;;20.29;54.19;100558.34;4341145;32;33143;-95
2023/05/19 07:24:46;;;;;;;;;;;;;;;20.38;53.42;100555.84;4351390;32;32263;-93
2023/05/19 07:27:28;;;;;;;;;;;;;;;20.21;55.58;100559.75;4348411;33;34732;-93
2023/05/19 07:30:20;;;;;;;;;;;;;;;20.45;55.96;100549.06;4362860;32;34481;-91
2023/05/19 07:33:02;;;;;;;;;;;;;;;20.55;54.26;100554.66;4369809;32;32718;-93
2023/05/19 07:35:55;;;;;;;;;;;;;;;20.87;52.90;100541.53;4362153;32;31829;-94
2023/05/19 07:38:35;;;;;;;;;;;;;;;20.69;54.97;100551.81;4362520;32;33986;-92
2023/05/19 07:41:18;;;;;;;;;;;;;;;20.92;53.85;100551.94;4337604;33;33366;-93
2023/05/19 07:44:13;;;;;;;;;;;;;;;20.49;55.32;100546.19;4348525;33;34868;-93
2023/05/19 07:46:53;;;;;;;;;;;;;;;20.97;54.60;100550.59;4338043;32;32085;-95
2023/05/19 07:49:48;;;;;;;;;;;;;;;21.11;54.45;100551.41;4371618;32;34820;-92
2023/05/19 07:52:18;;;;;;;;;;;;;;;21.25;52.78;100547.66;4351127;32;34232;-88
2023/05/19 07:55:16;;;;;;;;;;;;;;;20.77;54.59;100553.06;4353497;32;34598;-90
2023/05/19 07:57:44;;;;;;;;;;;;;;;20.70;53.36;100548.19;4367945;32;32946;-89
2023/05/19 08:00:17;;;;;;;;;;;;;;;21.16;51.75;100539.34;4344406;32;34178;-90
2023/05/19 08:02:56;;;;;;;;;;;;;;;21.09;51.86;100540.78;4365129;32;33398;-90
2023/05/19 08:05:25;;;;;;;;;;;;;;;21.06;53.86;100530.25;4344536;32;34809;-90
2023/05/19 08:08:18;;;;;;;;;;;;;;;20.98;54.46;100540.72;4350545;32;32179;-90
2023/05/19 08:10:46;;;;;;;;;;;;;;;21.10;53.65;100537.12;4342058;32;34173;-90
2023/05/19 08:13:39;;;;;;;;;;;;;;;21.54;54.01;100532.03;4353080;32;33373;-90
2023/05/19 08:16:08;;;;;;;;;;;;;;;21.73;52.51;100527.75;4354728;32;32980;-90
2023/05/19 08:19:01;;;;;;;;;;;;;;;21.96;51.51;100522.41;4366574;32;31905;-90
2023/05/19 08:21:35;;;;;;;;;;;;;;;21.98;49.34;100524.00;4352510;32;32484;-90
2023/05/19 08:24:03;;;;;;;;;;;;;;;22.34;50.52;100526.56;4365202;32;34040;-90
2023/05/19 08:26:40;;;;;;;;;;;;;;;22.04;51.32;100527.19;4355545;32;32875;-90
2023/05/19 08:29:09;;;;;;;;;;;;;;;22.55;50.35;100535.59;4344123;32;32033;-90
2023/05/19 08:31:38;;;;;;;;;;;;;;;22.49;49.37;100530.69;4355457;32;32378;-89
2023/05/19 08:34:08;;;;;;;;;;;;;;;22.22;48.59;100534.66;4342753;32;33767;-90
2023/05/19 08:36:56;;;;;;;;;;;;;;;22.17;49.37;100525.22;4347190;32;32943;-90
2023/05/19 08:39:33;;;;;;;;;;;;;;;22.59;50.24;100525.41;4357516;32;32399;-90
2023/05/19 08:42:03;;;;;;;;;;;;;;;22.28;48.38;100525.25;4354696;32;32582;-90
2023/05/19 08:44:32;;;;;;;;;;;;;;;22.71;49.49;100522.56;4366888;32;32645;-90
2023/05/19 08:47:11;;;;;;;;;;;;;;;23.08;48.96;100518.66;4363793;32;33225;-91
2023/05/19 08:49:42;;;;;;;;;;;;;;;22.89;47.73;100522.91;4378333;32;33335;-90
2023/05/19 08:52:12;;;;;;;;;;;;;;;23.14;46.62;100528.91;4367916;32;32851;-90
2023/05/19 08:54:54;;;;;;;;;;;;;;;23.60;47.41;100525.84;4356543;32;32727;-90
2023/05/19 08:57:23;;;;;;;;;;;;;;;23.27;46.58;100515.25;4340976;32;33712;-90
2023/05/19 08:59:51;;;;;;;;;;;;;;;23.25;45.99;100512.69;4369349;32;33751;-91
2023/05/19 09:02:29;;;;;;;;;;;;;;;23.08;46.58;100516.81;4368018;32;32694;-91
2023/05/19 09:04:57;;;;;;;;;;;;;;;23.58;48.38;100519.69;4359615;32;32756;-91
2023/05/19 09:07:28;;;;;;;;;;;;;;;23.81;45.72;100514.19;4342570;32;32465;-91
2023/05/19 09:10:13;;;;;;;;;;;;;;;23.02;47.90;100522.72;4354715;32;32283;-91
2023/05/19 09:13:02;;;;;;;;;;;;;;;22.57;50.04;100522.00;4333793;32;32601;-91
2023/05/19 09:15:35;;;;;;;;;;;;;;;23.06;49.25;100513.38;4344144;32;34108;-90
2023/05/19 09:18:13;;;;;;;;;;;;;;;23.63;47.22;100516.59;4355392;32;33151;-89
2023/05/19 09:20:46;;;;;;;;;;;;;;;23.61;46.65;100519.44;4363179;32;33210;-90
2023/05/19 09:23:15;;;;;;;;;;;;;;;23.39;47.69;100508.81;4339905;32;32884;-90
2023/05/19 09:25:48;;;;;;;;;;;;;;;23.83;47.29;100506.81;4367608;32;32822;-91
2023/05/19 09:28:28;;;;;;;;;;;;;;;23.83;45.15;100501.41;4356261;32;33313;-90
2023/05/19 09:31:04;;;;;;;;;;;;;;;23.35;47.63;100504.66;4354855;32;32392;-90
2023/05/19 09:33:38;;;;;;;;;;;;;;;23.70;47.51;100507.91;4354604;32;33051;-90
2023/05/19 09:36:11;;;;;;;;;;;;;;;24.24;45.41;100501.28;4356042;32;33277;-90
2023/05/19 09:39:20;;;;;;;;;;;;;;;23.52;45.80;100513.00;4353590;32;34686;-91
2023/05/19 09:41:54;;;;;;;;;;;;;;;23.14;47.50;100513.59;4354319;32;32311;-91
2023/05/19 09:44:28;;;;;;;;;;;;;;;23.31;47.74;100503.22;4356659;32;33061;-91
2023/05/19 09:47:18;;;;;;;;;;;;;;;23.81;47.20;100490.75;4360864;32;33906;-91
2023/05/19 09:52:51;;;;;;;;;;;;;;;24.31;46.56;100484.53;4345512;32;32335;-90
2023/05/19 09:55:24;;;;;;;;;;;;;;;24.66;43.70;100474.13;4347414;32;33282;-91
2023/05/19 09:57:53;;;;;;;;;;;;;;;24.41;45.73;100478.22;4358681;32;33161;-91
2023/05/19 10:00:30;;;;;;;;;;;;;;;24.06;45.21;100480.50;4361749;32;32658;-91
2023/05/19 10:03:00;;;;;;;;;;;;;;;24.01;46.25;100472.81;4356491;32;32461;-91
2023/05/19 10:05:34;;;;;;;;;;;;;;;24.46;46.71;100472.41;4344777;32;33368;-93
2023/05/19 10:08:20;;;;;;;;;;;;;;;24.27;46.49;100463.22;4341276;32;33061;-93
2023/05/19 10:11:16;;;;;;;;;;;;;;;24.58;47.13;100468.56;4351147;32;35403;-93
2023/05/19 10:13:55;;;;;;;;;;;;;;;24.85;45.22;100459.75;4338455;32;33191;-93
2023/05/19 10:16:48;;;;;;;;;;;;;;;25.06;44.69;100461.44;4348506;32;33756;-92
2023/05/19 10:19:29;;;;;;;;;;;;;;;25.11;44.84;100459.19;4343222;32;33113;-95
2023/05/19 10:22:11;;;;;;;;;;;;;;;24.46;45.13;100458.91;4384583;32;33357;-94
2023/05/19 10:25:19;;;;;;;;;;;;;;;24.44;46.42;100459.00;4360998;32;33105;-91
2023/05/19 10:27:52;;;;;;;;;;;;;;;24.24;45.83;100463.50;4371974;32;32632;-89
2023/05/19 10:30:38;;;;;;;;;;;;;;;24.23;47.93;100451.00;4350481;32;34165;-89
2023/05/19 10:35:59;;;;;;;;;;;;;;;23.79;46.46;100448.75;4352102;32;33397;-91
2023/05/19 10:38:52;;;;;;;;;;;;;;;24.26;48.63;100445.34;4353121;32;34083;-88
2023/05/19 10:41:27;;;;;;;;;;;;;;;25.06;46.37;100443.38;4368105;32;33640;-90
2023/05/19 10:43:55;;;;;;;;;;;;;;;24.44;45.81;100447.37;4357088;32;34280;-89
2023/05/19 10:46:27;;;;;;;;;;;;;;;24.39;45.34;100446.94;4352738;32;32277;-89
2023/05/19 10:48:57;;;;;;;;;;;;;;;24.99;41.83;100442.25;4354739;32;33299;-89
2023/05/19 10:51:32;;;;;;;;;;;;;;;23.82;45.06;100443.94;4347579;32;33821;-89
2023/05/19 10:54:11;;;;;;;;;;;;;;;23.94;43.63;100440.16;4337643;32;32530;-89
2023/05/19 10:56:45;;;;;;;;;;;;;;;24.08;45.61;100441.59;4349166;32;33331;-90
2023/05/19 10:59:32;;;;;;;;;;;;;;;24.28;43.65;100427.16;4352094;32;34235;-89
2023/05/19 11:02:03;;;;;;;;;;;;;;;24.61;44.01;100433.19;4356703;32;34500;-89
2023/05/19 11:04:58;;;;;;;;;;;;;;;25.22;42.42;100427.47;4360658;32;33181;-92
2023/05/19 11:07:26;;;;;;;;;;;;;;;24.95;42.19;100424.63;4348224;32;32790;-88
2023/05/19 11:09:55;;;;;;;;;;;;;;;24.62;43.05;100418.69;4342876;32;35068;-89
2023/05/19 11:12:24;;;;;;;;;;;;;;;25.68;42.11;100422.16;4365124;32;33354;-89
2023/05/19 11:14:53;;;;;;;;;;;;;;;25.58;40.29;100413.25;4345956;32;34763;-88
2023/05/19 11:17:23;;;;;;;;;;;;;;;25.86;40.41;100416.84;4356394;32;32478;-88
2023/05/19 11:19:55;;;;;;;;;;;;;;;25.66;39.53;100414.22;4356387;32;33794;-89
2023/05/19 11:22:24;;;;;;;;;;;;;;;25.95;40.88;100418.66;4351442;32;33811;-88
2023/05/19 11:24:56;;;;;;;;;;;;;;;26.04;38.88;100415.03;4357055;32;32843;-90
2023/05/19 11:27:31;;;;;;;;;;;;;;;25.41;40.70;100420.31;4354054;32;33413;-88
2023/05/19 11:30:13;;;;;;;;;;;;;;;25.74;40.30;100411.62;4341421;32;34308;-86
2023/05/19 11:32:46;;;;;;;;;;;;;;;26.39;37.62;100416.06;4339862;32;35055;-87
2023/05/19 11:35:17;;;;;;;;;;;;;;;26.01;38.39;100412.63;4352186;32;34125;-87
2023/05/19 11:37:46;;;;;;;;;;;;;;;25.89;38.93;100413.84;4365706;32;32169;-86
2023/05/19 11:40:17;;;;;;;;;;;;;;;25.74;39.53;100414.31;4339573;32;33969;-86
2023/05/19 11:42:51;;;;;;;;;;;;;;;25.25;40.40;100421.75;4344647;32;34985;-86
2023/05/19 11:45:25;;;;;;;;;;;;;;;25.41;40.49;100423.00;4355356;32;32957;-87
2023/05/19 11:47:57;;;;;;;;;;;;;;;25.00;40.61;100416.94;4341765;32;33437;-87
2023/05/19 11:50:32;;;;;;;;;;;;;;;25.31;40.00;100419.47;4378944;32;34011;-86
2023/05/19 11:53:00;;;;;;;;;;;;;;;25.68;37.62;100412.19;4359874;32;34295;-87
2023/05/19 11:55:37;;;;;;;;;;;;;;;25.66;38.76;100425.03;4347583;32;34153;-87
2023/05/19 11:58:05;;;;;;;;;;;;;;;25.87;39.86;100415.84;4363760;32;32183;-87
2023/05/19 12:00:38;;;;;;;;;;;;;;;26.08;37.04;100419.16;4373407;32;33546;-87
2023/05/19 12:03:10;;;;;;;;;;;;;;;25.74;38.91;100405.34;4348192;32;33659;-86
2023/05/19 12:05:46;;;;;;;;;;;;;;;26.34;38.31;100407.56;4355602;32;34710;-87
2023/05/19 12:08:23;;;;;;;;;;;;;;;25.92;38.23;100405.41;4353005;32;32822;-87
2023/05/19 12:10:55;;;;;;;;;;;;;;;25.32;39.07;100404.97;4340410;32;34736;-87
2023/05/19 12:13:23;;;;;;;;;;;;;;;25.62;38.00;100407.38;4343104;32;32932;-89
2023/05/19 12:15:56;;;;;;;;;;;;;;;25.92;38.31;100403.59;4340945;32;34353;-88
2023/05/19 12:18:31;;;;;;;;;;;;;;;26.09;37.25;100401.91;4377281;32;33971;-89
2023/05/19 12:20:59;;;;;;;;;;;;;;;25.96;37.49;100393.28;4344833;32;32934;-87
2023/05/19 12:23:29;;;;;;;;;;;;;;;26.01;38.68;100385.56;4377698;32;33711;-87
2023/05/19 12:25:59;;;;;;;;;;;;;;;26.09;38.74;100387.53;4360848;32;33217;-87
2023/05/19 12:28:29;;;;;;;;;;;;;;;26.10;37.70;100391.94;4364443;32;33034;-88
2023/05/19 12:30:57;;;;;;;;;;;;;;;25.67;37.67;100382.59;4336304;32;32795;-88
2023/05/19 12:33:31;;;;;;;;;;;;;;;26.07;37.26;100376.84;4347803;32;36137;-88
2023/05/19 12:38:47;;;;;;;;;;;;;;;26.14;37.34;100366.25;4371703;32;33874;-89
2023/05/19 12:41:22;;;;;;;;;;;;;;;26.44;37.35;100365.03;4351392;32;33269;-87
2023/05/19 12:43:51;;;;;;;;;;;;;;;26.77;36.88;100356.19;4345276;32;33072;-86
2023/05/19 12:46:21;;;;;;;;;;;;;;;27.01;34.93;100352.81;4349298;32;32730;-87
2023/05/19 12:48:50;;;;;;;;;;;;;;;26.93;35.22;100351.91;4356560;32;32361;-88
2023/05/19 12:51:20;;;;;;;;;;;;;;;26.67;37.20;100352.72;4342983;32;34297;-87
2023/05/19 12:53:49;;;;;;;;;;;;;;;26.50;36.94;100359.88;4363559;32;34998;-88
2023/05/19 12:56:17;;;;;;;;;;;;;;;25.77;38.49;100350.97;4339297;32;34325;-89
2023/05/19 12:58:54;;;;;;;;;;;;;;;25.88;38.14;100352.63;4347558;32;32421;-88
2023/05/19 13:01:25;;;;;;;;;;;;;;;26.12;37.72;100358.31;4346876;32;32818;-89
2023/05/19 13:03:54;;;;;;;;;;;;;;;26.60;36.17;100354.38;4353132;32;34085;-87
2023/05/19 13:06:29;;;;;;;;;;;;;;;26.95;36.42;100345.31;4361966;32;33946;-88
2023/05/19 13:09:03;;;;;;;;;;;;;;;26.32;38.14;100345.47;4346701;32;33744;-88
2023/05/19 13:11:34;;;;;;;;;;;;;;;26.30;38.60;100342.03;4358260;32;34490;-88
2023/05/19 13:14:05;;;;;;;;;;;;;;;26.60;37.51;100343.53;4364240;32;33509;-85
2023/05/19 13:16:36;;;;;;;;;;;;;;;26.13;38.19;100340.22;4348115;32;34275;-88
2023/05/19 13:19:08;;;;;;;;;;;;;;;26.03;38.39;100340.28;4342790;32;32940;-88
2023/05/19 13:21:56;;;;;;;;;;;;;;;26.45;38.10;100337.84;4350083;32;33441;-89
2023/05/19 13:24:25;;;;;;;;;;;;;;;26.68;37.41;100335.47;4341215;32;33808;-87
2023/05/19 13:26:54;;;;;;;;;;;;;;;26.96;35.59;100321.75;4336056;32;33102;-87
2023/05/19 13:29:23;;;;;;;;;;;;;;;27.24;35.76;100319.75;4349591;32;33281;-87
2023/05/19 13:31:51;;;;;;;;;;;;;;;27.33;35.46;100320.62;4347688;32;33881;-87
2023/05/19 13:34:20;;;;;;;;;;;;;;;26.68;37.65;100316.53;4347877;32;33176;-87
2023/05/19 13:36:49;;;;;;;;;;;;;;;27.02;37.00;100307.59;4337615;32;33999;-87
2023/05/19 13:41:53;;;;;;;;;;;;;;;26.78;38.00;100303.72;4347865;32;34022;-87
2023/05/19 13:44:24;;;;;;;;;;;;;;;26.68;37.12;100308.41;4341880;32;33682;-87
2023/05/19 13:46:56;;;;;;;;;;;;;;;26.49;37.76;100313.97;4344395;32;34532;-87